sensor_id;sensor_type;location;lat;lon;timestamp;P1;durP1;ratioP1;P2;durP2;ratioP2
32788;SDS011;19141;48.980;8.410;2023-08-24T04:22:32;11.32;;;6.97;;
32788;SDS011;19141;48.980;8.410;2023-08-24T04:24:58;7.95;;;6.80;;
32788;SDS011;19141;48.980;8.410;2023-08-24T04:27:23;8.73;;;6.60;;
32788;SDS011;19141;48.980;8.410;2023-08-24T04:29:48;9.82;;;6.28;;
32788;SDS011;19141;48.980;8.410;2023-08-24T04:32:14;8.88;;;6.10;;
32788;SDS011;19141;48.980;8.410;2023-08-24T04:34:39;11.55;;;6.65;;
32788;SDS011;19141;48.980;8.410;2023-08-24T04:37:05;10.48;;;6.20;;
32788;SDS011;19141;48.980;8.410;2023-08-24T04:39:31;8.40;;;6.40;;
32788;SDS011;19141;48.980;8.410;2023-08-24T04:41:57;8.32;;;6.35;;
32788;SDS011;19141;48.980;8.410;2023-08-24T04:44:23;9.43;;;6.70;;
32788;SDS011;19141;48.980;8.410;2023-08-24T04:46:49;8.23;;;6.40;;
32788;SDS011;19141;48.980;8.410;2023-08-24T04:49:15;8.38;;;5.43;;
32788;SDS011;19141;48.980;8.410;2023-08-24T04:51:40;11.82;;;6.30;;
32788;SDS011;19141;48.980;8.410;2023-08-24T04:54:06;7.88;;;5.97;;
32788;SDS011;19141;48.980;8.410;2023-08-24T04:56:31;8.07;;;5.38;;
32788;SDS011;19141;48.980;8.410;2023-08-24T04:58:57;6.43;;;5.65;;
32788;SDS011;19141;48.980;8.410;2023-08-24T05:01:26;5.90;;;5.35;;
32788;SDS011;19141;48.980;8.410;2023-08-24T05:03:53;8.75;;;5.70;;
32788;SDS011;19141;48.980;8.410;2023-08-24T05:06:19;10.32;;;5.50;;
32788;SDS011;19141;48.980;8.410;2023-08-24T05:08:45;7.65;;;5.32;;
32788;SDS011;19141;48.980;8.410;2023-08-24T05:11:17;6.10;;;5.43;;
32788;SDS011;19141;48.980;8.410;2023-08-24T05:13:44;9.48;;;5.38;;
32788;SDS011;19141;48.980;8.410;2023-08-24T05:16:10;6.60;;;5.32;;
32788;SDS011;19141;48.980;8.410;2023-08-24T05:18:36;9.80;;;5.20;;
32788;SDS011;19141;48.980;8.410;2023-08-24T05:21:02;7.45;;;5.18;;
32788;SDS011;19141;48.980;8.410;2023-08-24T05:23:28;5.57;;;5.00;;
32788;SDS011;19141;48.980;8.410;2023-08-24T05:25:54;9.38;;;4.97;;
32788;SDS011;19141;48.980;8.410;2023-08-24T05:28:21;6.63;;;4.60;;
32788;SDS011;19141;48.980;8.410;2023-08-24T05:30:47;6.60;;;5.18;;
32788;SDS011;19141;48.980;8.410;2023-08-24T05:33:12;6.13;;;4.88;;
32788;SDS011;19141;48.980;8.410;2023-08-24T05:35:37;9.13;;;5.03;;
32788;SDS011;19141;48.980;8.410;2023-08-24T05:38:03;6.97;;;4.63;;
32788;SDS011;19141;48.980;8.410;2023-08-24T05:40:28;4.95;;;4.20;;
32788;SDS011;19141;48.980;8.410;2023-08-24T05:42:54;6.82;;;5.63;;
32788;SDS011;19141;48.980;8.410;2023-08-24T05:45:19;6.07;;;4.60;;
32788;SDS011;19141;48.980;8.410;2023-08-24T05:47:44;7.43;;;4.97;;
32788;SDS011;19141;48.980;8.410;2023-08-24T05:50:10;6.15;;;4.88;;
32788;SDS011;19141;48.980;8.410;2023-08-24T05:52:36;7.78;;;4.43;;
32788;SDS011;19141;48.980;8.410;2023-08-24T05:55:02;7.65;;;5.47;;
32788;SDS011;19141;48.980;8.410;2023-08-24T05:57:28;7.13;;;5.22;;
32788;SDS011;19141;48.980;8.410;2023-08-24T05:59:53;5.63;;;5.00;;
32788;SDS011;19141;48.980;8.410;2023-08-24T06:02:19;6.30;;;4.85;;
32788;SDS011;19141;48.980;8.410;2023-08-24T06:04:44;6.68;;;5.20;;
32788;SDS011;19141;48.980;8.410;2023-08-24T06:07:09;5.88;;;4.95;;
32788;SDS011;19141;48.980;8.410;2023-08-24T06:09:35;5.95;;;4.88;;
32788;SDS011;19141;48.980;8.410;2023-08-24T06:12:00;6.88;;;5.13;;
32788;SDS011;19141;48.980;8.410;2023-08-24T06:14:26;6.35;;;5.07;;
32788;SDS011;19141;48.980;8.410;2023-08-24T06:16:51;6.55;;;4.72;;
32788;SDS011;19141;48.980;8.410;2023-08-24T06:19:18;6.93;;;5.32;;
32788;SDS011;19141;48.980;8.410;2023-08-24T06:21:43;8.27;;;5.82;;
32788;SDS011;19141;48.980;8.410;2023-08-24T06:24:09;5.30;;;4.53;;
32788;SDS011;19141;48.980;8.410;2023-08-24T06:26:35;8.02;;;5.20;;
32788;SDS011;19141;48.980;8.410;2023-08-24T06:29:00;5.80;;;4.93;;
32788;SDS011;19141;48.980;8.410;2023-08-24T06:31:25;7.18;;;4.40;;
32788;SDS011;19141;48.980;8.410;2023-08-24T06:33:51;6.78;;;4.70;;
32788;SDS011;19141;48.980;8.410;2023-08-24T06:36:17;8.60;;;4.30;;
32788;SDS011;19141;48.980;8.410;2023-08-24T06:38:43;4.85;;;3.72;;
32788;SDS011;19141;48.980;8.410;2023-08-24T06:41:08;5.85;;;4.40;;
32788;SDS011;19141;48.980;8.410;2023-08-24T06:43:37;7.47;;;4.65;;
32788;SDS011;19141;48.980;8.410;2023-08-24T06:46:04;8.00;;;3.92;;
32788;SDS011;19141;48.980;8.410;2023-08-24T06:48:33;6.03;;;3.90;;
32788;SDS011;19141;48.980;8.410;2023-08-24T06:50:59;5.88;;;4.03;;
32788;SDS011;19141;48.980;8.410;2023-08-24T06:53:25;5.40;;;3.80;;
32788;SDS011;19141;48.980;8.410;2023-08-24T06:55:54;6.47;;;4.10;;
32788;SDS011;19141;48.980;8.410;2023-08-24T06:58:20;5.15;;;3.65;;
32788;SDS011;19141;48.980;8.410;2023-08-24T07:00:46;5.65;;;3.55;;
32788;SDS011;19141;48.980;8.410;2023-08-24T07:03:11;6.90;;;3.90;;
32788;SDS011;19141;48.980;8.410;2023-08-24T07:05:37;5.22;;;3.55;;
32788;SDS011;19141;48.980;8.410;2023-08-24T07:08:02;5.70;;;3.85;;
32788;SDS011;19141;48.980;8.410;2023-08-24T07:10:28;9.50;;;3.72;;
32788;SDS011;19141;48.980;8.410;2023-08-24T07:12:54;5.10;;;3.90;;
32788;SDS011;19141;48.980;8.410;2023-08-24T07:15:19;5.43;;;3.90;;
32788;SDS011;19141;48.980;8.410;2023-08-24T07:17:44;6.57;;;4.03;;
32788;SDS011;19141;48.980;8.410;2023-08-24T07:20:10;4.55;;;3.45;;
32788;SDS011;19141;48.980;8.410;2023-08-24T07:22:39;5.00;;;3.55;;
32788;SDS011;19141;48.980;8.410;2023-08-24T07:25:04;4.18;;;3.60;;
32788;SDS011;19141;48.980;8.410;2023-08-24T07:27:33;4.68;;;3.78;;
32788;SDS011;19141;48.980;8.410;2023-08-24T07:30:00;5.50;;;4.43;;
32788;SDS011;19141;48.980;8.410;2023-08-24T07:32:26;5.15;;;3.30;;
32788;SDS011;19141;48.980;8.410;2023-08-24T07:34:52;6.47;;;3.65;;
32788;SDS011;19141;48.980;8.410;2023-08-24T07:37:17;5.00;;;3.08;;
32788;SDS011;19141;48.980;8.410;2023-08-24T07:39:43;3.83;;;3.28;;
32788;SDS011;19141;48.980;8.410;2023-08-24T07:42:08;4.07;;;2.88;;
32788;SDS011;19141;48.980;8.410;2023-08-24T07:44:34;4.82;;;3.03;;
32788;SDS011;19141;48.980;8.410;2023-08-24T07:46:59;3.63;;;2.90;;
32788;SDS011;19141;48.980;8.410;2023-08-24T07:49:25;5.45;;;3.13;;
32788;SDS011;19141;48.980;8.410;2023-08-24T07:51:51;8.07;;;3.17;;
32788;SDS011;19141;48.980;8.410;2023-08-24T07:54:16;5.22;;;3.17;;
32788;SDS011;19141;48.980;8.410;2023-08-24T07:56:42;8.68;;;3.38;;
32788;SDS011;19141;48.980;8.410;2023-08-24T07:59:07;7.93;;;3.38;;
32788;SDS011;19141;48.980;8.410;2023-08-24T08:01:32;5.50;;;2.90;;
32788;SDS011;19141;48.980;8.410;2023-08-24T08:03:58;4.95;;;2.92;;
32788;SDS011;19141;48.980;8.410;2023-08-24T08:06:25;3.40;;;2.83;;
32788;SDS011;19141;48.980;8.410;2023-08-24T08:08:51;8.97;;;3.77;;
32788;SDS011;19141;48.980;8.410;2023-08-24T08:11:17;6.13;;;3.33;;
32788;SDS011;19141;48.980;8.410;2023-08-24T08:13:42;3.20;;;2.80;;
32788;SDS011;19141;48.980;8.410;2023-08-24T08:16:08;5.07;;;2.78;;
32788;SDS011;19141;48.980;8.410;2023-08-24T08:18:34;3.53;;;2.85;;
32788;SDS011;19141;48.980;8.410;2023-08-24T08:21:01;4.93;;;3.28;;
32788;SDS011;19141;48.980;8.410;2023-08-24T08:23:33;6.93;;;3.13;;
32788;SDS011;19141;48.980;8.410;2023-08-24T08:25:58;3.88;;;2.88;;
32788;SDS011;19141;48.980;8.410;2023-08-24T08:28:24;3.25;;;2.47;;
32788;SDS011;19141;48.980;8.410;2023-08-24T08:30:49;9.38;;;3.55;;
32788;SDS011;19141;48.980;8.410;2023-08-24T08:33:14;4.82;;;2.65;;
32788;SDS011;19141;48.980;8.410;2023-08-24T08:35:40;3.80;;;2.95;;
32788;SDS011;19141;48.980;8.410;2023-08-24T08:38:06;4.10;;;2.70;;
32788;SDS011;19141;48.980;8.410;2023-08-24T08:40:32;5.75;;;2.90;;
32788;SDS011;19141;48.980;8.410;2023-08-24T08:43:02;6.35;;;3.10;;
32788;SDS011;19141;48.980;8.410;2023-08-24T08:45:27;6.22;;;3.10;;
32788;SDS011;19141;48.980;8.410;2023-08-24T08:48:00;5.57;;;3.22;;
32788;SDS011;19141;48.980;8.410;2023-08-24T08:50:26;6.80;;;2.70;;
32788;SDS011;19141;48.980;8.410;2023-08-24T08:52:52;3.45;;;2.90;;
32788;SDS011;19141;48.980;8.410;2023-08-24T08:55:18;4.50;;;2.78;;
32788;SDS011;19141;48.980;8.410;2023-08-24T08:57:48;4.60;;;2.80;;
32788;SDS011;19141;48.980;8.410;2023-08-24T09:00:14;3.75;;;2.72;;
32788;SDS011;19141;48.980;8.410;2023-08-24T09:02:45;5.57;;;2.90;;
32788;SDS011;19141;48.980;8.410;2023-08-24T09:05:12;4.18;;;2.88;;
32788;SDS011;19141;48.980;8.410;2023-08-24T09:07:39;4.73;;;2.90;;
32788;SDS011;19141;48.980;8.410;2023-08-24T09:10:05;4.90;;;3.28;;
32788;SDS011;19141;48.980;8.410;2023-08-24T09:12:32;4.25;;;2.95;;
32788;SDS011;19141;48.980;8.410;2023-08-24T09:14:58;4.88;;;3.03;;
32788;SDS011;19141;48.980;8.410;2023-08-24T09:17:24;3.95;;;2.50;;
32788;SDS011;19141;48.980;8.410;2023-08-24T09:19:50;7.30;;;2.92;;
32788;SDS011;19141;48.980;8.410;2023-08-24T09:22:19;3.90;;;3.10;;
32788;SDS011;19141;48.980;8.410;2023-08-24T09:24:44;4.15;;;2.78;;
32788;SDS011;19141;48.980;8.410;2023-08-24T09:27:17;4.43;;;2.60;;
32788;SDS011;19141;48.980;8.410;2023-08-24T09:29:47;5.32;;;2.80;;
32788;SDS011;19141;48.980;8.410;2023-08-24T09:32:23;3.28;;;2.97;;
32788;SDS011;19141;48.980;8.410;2023-08-24T09:34:56;5.57;;;3.22;;
32788;SDS011;19141;48.980;8.410;2023-08-24T09:37:31;5.40;;;3.17;;
32788;SDS011;19141;48.980;8.410;2023-08-24T09:40:04;4.18;;;2.92;;
32788;SDS011;19141;48.980;8.410;2023-08-24T09:42:39;5.75;;;3.08;;
32788;SDS011;19141;48.980;8.410;2023-08-24T09:45:07;10.07;;;3.30;;
32788;SDS011;19141;48.980;8.410;2023-08-24T09:47:45;4.70;;;2.90;;
32788;SDS011;19141;48.980;8.410;2023-08-24T09:50:12;4.85;;;2.95;;
32788;SDS011;19141;48.980;8.410;2023-08-24T09:52:37;4.07;;;2.72;;
32788;SDS011;19141;48.980;8.410;2023-08-24T09:55:07;3.78;;;2.78;;
32788;SDS011;19141;48.980;8.410;2023-08-24T09:57:36;4.90;;;3.15;;
32788;SDS011;19141;48.980;8.410;2023-08-24T10:00:03;4.72;;;2.72;;
32788;SDS011;19141;48.980;8.410;2023-08-24T10:02:35;4.75;;;3.17;;
32788;SDS011;19141;48.980;8.410;2023-08-24T10:05:06;5.82;;;3.13;;
32788;SDS011;19141;48.980;8.410;2023-08-24T10:07:33;4.15;;;3.10;;
32788;SDS011;19141;48.980;8.410;2023-08-24T10:10:06;6.75;;;3.13;;
32788;SDS011;19141;48.980;8.410;2023-08-24T10:12:36;4.45;;;3.05;;
32788;SDS011;19141;48.980;8.410;2023-08-24T10:15:06;10.70;;;3.63;;
32788;SDS011;19141;48.980;8.410;2023-08-24T10:17:33;6.63;;;3.28;;
32788;SDS011;19141;48.980;8.410;2023-08-24T10:20:01;5.25;;;3.05;;
32788;SDS011;19141;48.980;8.410;2023-08-24T10:22:30;4.32;;;3.22;;
32788;SDS011;19141;48.980;8.410;2023-08-24T10:24:58;5.53;;;2.80;;
32788;SDS011;19141;48.980;8.410;2023-08-24T10:27:26;4.82;;;2.97;;
32788;SDS011;19141;48.980;8.410;2023-08-24T10:29:52;4.05;;;3.13;;
32788;SDS011;19141;48.980;8.410;2023-08-24T10:32:19;4.43;;;2.60;;
32788;SDS011;19141;48.980;8.410;2023-08-24T10:34:46;3.00;;;2.70;;
32788;SDS011;19141;48.980;8.410;2023-08-24T10:37:11;5.50;;;2.80;;
32788;SDS011;19141;48.980;8.410;2023-08-24T10:39:38;4.70;;;2.73;;
32788;SDS011;19141;48.980;8.410;2023-08-24T10:42:13;3.25;;;2.65;;
32788;SDS011;19141;48.980;8.410;2023-08-24T10:44:39;3.47;;;2.80;;
32788;SDS011;19141;48.980;8.410;2023-08-24T10:47:12;4.50;;;2.42;;
32788;SDS011;19141;48.980;8.410;2023-08-24T10:49:41;4.22;;;2.38;;
32788;SDS011;19141;48.980;8.410;2023-08-24T10:52:20;4.38;;;2.60;;
32788;SDS011;19141;48.980;8.410;2023-08-24T10:54:47;3.85;;;2.88;;
32788;SDS011;19141;48.980;8.410;2023-08-24T11:05:15;2.85;;;2.47;;
32788;SDS011;19141;48.980;8.410;2023-08-24T11:07:52;4.50;;;2.63;;
32788;SDS011;19141;48.980;8.410;2023-08-24T11:10:18;5.13;;;2.65;;
32788;SDS011;19141;48.980;8.410;2023-08-24T11:15:32;4.90;;;2.87;;
32788;SDS011;19141;48.980;8.410;2023-08-24T11:20:46;4.93;;;2.58;;
32788;SDS011;19141;48.980;8.410;2023-08-24T11:23:14;5.75;;;3.25;;
32788;SDS011;19141;48.980;8.410;2023-08-24T11:25:40;3.72;;;2.58;;
32788;SDS011;19141;48.980;8.410;2023-08-24T11:28:06;5.60;;;2.90;;
32788;SDS011;19141;48.980;8.410;2023-08-24T11:30:31;3.50;;;2.55;;
32788;SDS011;19141;48.980;8.410;2023-08-24T11:33:01;5.55;;;3.03;;
32788;SDS011;19141;48.980;8.410;2023-08-24T11:35:27;4.35;;;2.50;;
32788;SDS011;19141;48.980;8.410;2023-08-24T11:37:53;3.47;;;2.80;;
32788;SDS011;19141;48.980;8.410;2023-08-24T11:40:22;4.78;;;3.03;;
32788;SDS011;19141;48.980;8.410;2023-08-24T11:42:54;4.22;;;2.70;;
32788;SDS011;19141;48.980;8.410;2023-08-24T11:45:22;5.60;;;2.80;;
32788;SDS011;19141;48.980;8.410;2023-08-24T11:50:16;3.67;;;2.75;;
32788;SDS011;19141;48.980;8.410;2023-08-24T11:52:42;3.85;;;2.80;;
32788;SDS011;19141;48.980;8.410;2023-08-24T11:55:07;5.20;;;2.80;;
32788;SDS011;19141;48.980;8.410;2023-08-24T11:57:34;8.48;;;3.15;;
32788;SDS011;19141;48.980;8.410;2023-08-24T12:00:00;3.80;;;2.80;;
32788;SDS011;19141;48.980;8.410;2023-08-24T12:02:32;3.47;;;2.67;;
32788;SDS011;19141;48.980;8.410;2023-08-24T12:04:58;4.35;;;3.10;;
32788;SDS011;19141;48.980;8.410;2023-08-24T12:07:24;4.28;;;2.72;;
32788;SDS011;19141;48.980;8.410;2023-08-24T12:09:51;4.55;;;2.95;;
32788;SDS011;19141;48.980;8.410;2023-08-24T12:12:19;5.18;;;3.22;;
32788;SDS011;19141;48.980;8.410;2023-08-24T12:14:48;4.82;;;3.22;;
32788;SDS011;19141;48.980;8.410;2023-08-24T12:17:17;4.50;;;3.00;;
32788;SDS011;19141;48.980;8.410;2023-08-24T12:19:45;3.97;;;2.95;;
32788;SDS011;19141;48.980;8.410;2023-08-24T12:22:22;4.80;;;3.22;;
32788;SDS011;19141;48.980;8.410;2023-08-24T12:24:48;5.03;;;2.77;;
32788;SDS011;19141;48.980;8.410;2023-08-24T12:27:22;6.00;;;3.00;;
32788;SDS011;19141;48.980;8.410;2023-08-24T12:29:49;6.32;;;3.15;;
32788;SDS011;19141;48.980;8.410;2023-08-24T12:32:16;3.85;;;2.72;;
32788;SDS011;19141;48.980;8.410;2023-08-24T12:34:44;5.15;;;2.72;;
32788;SDS011;19141;48.980;8.410;2023-08-24T12:37:11;4.65;;;3.03;;
32788;SDS011;19141;48.980;8.410;2023-08-24T12:39:37;5.35;;;2.83;;
32788;SDS011;19141;48.980;8.410;2023-08-24T12:42:03;4.78;;;3.13;;
32788;SDS011;19141;48.980;8.410;2023-08-24T12:44:29;4.25;;;2.85;;
32788;SDS011;19141;48.980;8.410;2023-08-24T12:46:54;5.23;;;3.23;;
32788;SDS011;19141;48.980;8.410;2023-08-24T12:49:20;3.70;;;2.80;;
32788;SDS011;19141;48.980;8.410;2023-08-24T12:51:45;5.67;;;2.77;;
32788;SDS011;19141;48.980;8.410;2023-08-24T12:54:11;4.53;;;2.97;;
32788;SDS011;19141;48.980;8.410;2023-08-24T12:56:36;4.27;;;2.90;;
32788;SDS011;19141;48.980;8.410;2023-08-24T12:59:03;4.65;;;3.15;;
32788;SDS011;19141;48.980;8.410;2023-08-24T13:01:28;3.50;;;2.77;;
32788;SDS011;19141;48.980;8.410;2023-08-24T13:03:53;5.20;;;3.00;;
32788;SDS011;19141;48.980;8.410;2023-08-24T13:06:19;3.40;;;3.00;;
32788;SDS011;19141;48.980;8.410;2023-08-24T13:08:44;5.80;;;2.80;;
32788;SDS011;19141;48.980;8.410;2023-08-24T13:11:09;4.83;;;3.20;;
32788;SDS011;19141;48.980;8.410;2023-08-24T13:13:36;5.93;;;2.95;;
32788;SDS011;19141;48.980;8.410;2023-08-24T13:16:01;3.20;;;2.50;;
32788;SDS011;19141;48.980;8.410;2023-08-24T13:18:27;4.72;;;2.55;;
32788;SDS011;19141;48.980;8.410;2023-08-24T13:20:52;5.55;;;2.88;;
32788;SDS011;19141;48.980;8.410;2023-08-24T13:23:18;5.47;;;3.00;;
32788;SDS011;19141;48.980;8.410;2023-08-24T13:25:43;3.47;;;2.83;;
32788;SDS011;19141;48.980;8.410;2023-08-24T13:28:09;3.03;;;2.73;;
32788;SDS011;19141;48.980;8.410;2023-08-24T13:30:34;6.75;;;3.10;;
32788;SDS011;19141;48.980;8.410;2023-08-24T13:32:59;6.03;;;3.38;;
32788;SDS011;19141;48.980;8.410;2023-08-24T13:35:25;3.42;;;2.70;;
32788;SDS011;19141;48.980;8.410;2023-08-24T13:37:51;5.45;;;3.20;;
32788;SDS011;19141;48.980;8.410;2023-08-24T13:40:16;3.90;;;2.83;;
32788;SDS011;19141;48.980;8.410;2023-08-24T13:42:42;3.43;;;3.07;;
32788;SDS011;19141;48.980;8.410;2023-08-24T13:45:07;5.33;;;2.87;;
32788;SDS011;19141;48.980;8.410;2023-08-24T13:47:32;4.28;;;2.92;;
32788;SDS011;19141;48.980;8.410;2023-08-24T13:49:58;3.93;;;2.80;;
32788;SDS011;19141;48.980;8.410;2023-08-24T13:52:23;3.87;;;3.03;;
32788;SDS011;19141;48.980;8.410;2023-08-24T13:54:49;3.47;;;3.17;;
32788;SDS011;19141;48.980;8.410;2023-08-24T13:57:14;3.47;;;3.10;;
32788;SDS011;19141;48.980;8.410;2023-08-24T13:59:40;4.87;;;4.30;;
32788;SDS011;19141;48.980;8.410;2023-08-24T14:02:05;5.60;;;4.17;;
32788;SDS011;19141;48.980;8.410;2023-08-24T14:04:31;3.40;;;3.10;;
32788;SDS011;19141;48.980;8.410;2023-08-24T14:06:57;3.90;;;3.50;;
32788;SDS011;19141;48.980;8.410;2023-08-24T14:09:22;6.03;;;3.40;;
32788;SDS011;19141;48.980;8.410;2023-08-24T14:11:48;6.20;;;3.63;;
32788;SDS011;19141;48.980;8.410;2023-08-24T14:14:13;4.23;;;3.07;;
32788;SDS011;19141;48.980;8.410;2023-08-24T14:16:39;4.43;;;3.50;;
32788;SDS011;19141;48.980;8.410;2023-08-24T14:19:05;7.10;;;3.40;;
32788;SDS011;19141;48.980;8.410;2023-08-24T14:21:30;9.83;;;4.30;;
32788;SDS011;19141;48.980;8.410;2023-08-24T14:23:56;8.40;;;3.80;;
32788;SDS011;19141;48.980;8.410;2023-08-24T14:26:21;5.30;;;3.80;;
32788;SDS011;19141;48.980;8.410;2023-08-24T14:28:51;4.97;;;3.93;;
32788;SDS011;19141;48.980;8.410;2023-08-24T14:31:22;6.47;;;4.07;;
32788;SDS011;19141;48.980;8.410;2023-08-24T14:33:48;8.30;;;4.72;;
32788;SDS011;19141;48.980;8.410;2023-08-24T14:36:15;5.43;;;4.07;;
32788;SDS011;19141;48.980;8.410;2023-08-24T14:38:41;4.80;;;3.85;;
32788;SDS011;19141;48.980;8.410;2023-08-24T14:41:07;4.60;;;4.18;;
32788;SDS011;19141;48.980;8.410;2023-08-24T14:45:59;8.03;;;4.53;;
32788;SDS011;19141;48.980;8.410;2023-08-24T14:48:24;5.13;;;4.35;;
32788;SDS011;19141;48.980;8.410;2023-08-24T14:50:50;7.38;;;4.70;;
32788;SDS011;19141;48.980;8.410;2023-08-24T14:53:15;6.07;;;5.32;;
32788;SDS011;19141;48.980;8.410;2023-08-24T14:55:41;6.68;;;5.38;;
32788;SDS011;19141;48.980;8.410;2023-08-24T14:58:06;6.63;;;4.65;;
32788;SDS011;19141;48.980;8.410;2023-08-24T15:00:32;10.50;;;5.28;;
32788;SDS011;19141;48.980;8.410;2023-08-24T15:02:58;26.20;;;7.20;;
32788;SDS011;19141;48.980;8.410;2023-08-24T15:05:23;5.65;;;5.07;;
32788;SDS011;19141;48.980;8.410;2023-08-24T15:07:49;5.78;;;4.53;;
32788;SDS011;19141;48.980;8.410;2023-08-24T15:10:15;7.45;;;4.80;;
32788;SDS011;19141;48.980;8.410;2023-08-24T15:12:42;5.30;;;4.80;;
32788;SDS011;19141;48.980;8.410;2023-08-24T15:15:08;5.30;;;4.80;;
32788;SDS011;19141;48.980;8.410;2023-08-24T15:17:35;6.32;;;4.85;;
32788;SDS011;19141;48.980;8.410;2023-08-24T15:20:01;6.57;;;5.27;;
32788;SDS011;19141;48.980;8.410;2023-08-24T15:22:30;6.25;;;4.80;;
32788;SDS011;19141;48.980;8.410;2023-08-24T15:24:55;8.60;;;4.80;;
32788;SDS011;19141;48.980;8.410;2023-08-24T15:27:21;6.20;;;5.20;;
32788;SDS011;19141;48.980;8.410;2023-08-24T15:29:47;6.28;;;4.82;;
32788;SDS011;19141;48.980;8.410;2023-08-24T15:32:12;5.70;;;4.72;;
32788;SDS011;19141;48.980;8.410;2023-08-24T15:34:41;6.63;;;4.90;;
32788;SDS011;19141;48.980;8.410;2023-08-24T15:37:06;6.05;;;5.13;;
32788;SDS011;19141;48.980;8.410;2023-08-24T15:39:35;6.53;;;4.97;;
32788;SDS011;19141;48.980;8.410;2023-08-24T15:42:01;7.03;;;5.65;;
32788;SDS011;19141;48.980;8.410;2023-08-24T15:44:27;7.72;;;5.30;;
32788;SDS011;19141;48.980;8.410;2023-08-24T15:46:52;6.30;;;5.63;;
32788;SDS011;19141;48.980;8.410;2023-08-24T15:49:18;7.22;;;5.13;;
32788;SDS011;19141;48.980;8.410;2023-08-24T15:51:43;8.15;;;5.30;;
32788;SDS011;19141;48.980;8.410;2023-08-24T15:54:08;7.53;;;5.57;;
32788;SDS011;19141;48.980;8.410;2023-08-24T15:56:34;7.55;;;4.95;;
32788;SDS011;19141;48.980;8.410;2023-08-24T15:58:59;5.97;;;5.30;;
32788;SDS011;19141;48.980;8.410;2023-08-24T16:01:25;7.30;;;5.30;;
32788;SDS011;19141;48.980;8.410;2023-08-24T16:03:50;7.45;;;5.10;;
32788;SDS011;19141;48.980;8.410;2023-08-24T16:06:16;7.13;;;5.18;;
32788;SDS011;19141;48.980;8.410;2023-08-24T16:08:41;6.22;;;5.00;;
32788;SDS011;19141;48.980;8.410;2023-08-24T16:11:07;5.60;;;4.72;;
32788;SDS011;19141;48.980;8.410;2023-08-24T16:13:32;7.10;;;5.25;;
32788;SDS011;19141;48.980;8.410;2023-08-24T16:15:58;5.22;;;4.72;;
32788;SDS011;19141;48.980;8.410;2023-08-24T16:18:23;6.65;;;4.90;;
32788;SDS011;19141;48.980;8.410;2023-08-24T16:20:50;6.13;;;5.30;;
32788;SDS011;19141;48.980;8.410;2023-08-24T16:23:16;6.77;;;5.53;;
32788;SDS011;19141;48.980;8.410;2023-08-24T16:25:42;5.53;;;4.95;;
32788;SDS011;19141;48.980;8.410;2023-08-24T16:28:09;6.68;;;4.90;;
32788;SDS011;19141;48.980;8.410;2023-08-24T16:30:35;6.45;;;5.25;;
32788;SDS011;19141;48.980;8.410;2023-08-24T16:33:01;7.03;;;5.00;;
32788;SDS011;19141;48.980;8.410;2023-08-24T16:35:26;5.40;;;4.57;;
32788;SDS011;19141;48.980;8.410;2023-08-24T16:37:52;6.22;;;4.80;;
32788;SDS011;19141;48.980;8.410;2023-08-24T16:40:17;6.78;;;4.95;;
32788;SDS011;19141;48.980;8.410;2023-08-24T16:42:43;5.75;;;5.22;;
32788;SDS011;19141;48.980;8.410;2023-08-24T16:45:08;8.13;;;5.28;;
32788;SDS011;19141;48.980;8.410;2023-08-24T16:47:34;9.05;;;6.18;;
32788;SDS011;19141;48.980;8.410;2023-08-24T16:49:59;8.95;;;5.78;;
32788;SDS011;19141;48.980;8.410;2023-08-24T16:52:25;6.60;;;5.07;;
32788;SDS011;19141;48.980;8.410;2023-08-24T16:54:50;7.75;;;5.70;;
32788;SDS011;19141;48.980;8.410;2023-08-24T16:57:16;10.75;;;6.32;;
32788;SDS011;19141;48.980;8.410;2023-08-24T16:59:41;6.97;;;6.00;;
32788;SDS011;19141;48.980;8.410;2023-08-24T17:02:06;9.40;;;7.03;;
32788;SDS011;19141;48.980;8.410;2023-08-24T17:04:32;9.15;;;6.72;;
32788;SDS011;19141;48.980;8.410;2023-08-24T17:06:57;9.27;;;6.80;;
32788;SDS011;19141;48.980;8.410;2023-08-24T17:09:22;8.02;;;6.70;;
32788;SDS011;19141;48.980;8.410;2023-08-24T17:11:48;7.55;;;6.53;;
32788;SDS011;19141;48.980;8.410;2023-08-24T17:14:13;13.52;;;9.38;;
32788;SDS011;19141;48.980;8.410;2023-08-24T17:16:39;8.07;;;7.18;;
32788;SDS011;19141;48.980;8.410;2023-08-24T17:19:05;9.48;;;6.75;;
32788;SDS011;19141;48.980;8.410;2023-08-24T17:21:30;7.90;;;7.10;;
32788;SDS011;19141;48.980;8.410;2023-08-24T17:23:55;10.60;;;7.60;;
32788;SDS011;19141;48.980;8.410;2023-08-24T17:26:21;8.05;;;7.15;;
32788;SDS011;19141;48.980;8.410;2023-08-24T17:28:47;8.77;;;6.95;;
32788;SDS011;19141;48.980;8.410;2023-08-24T17:31:12;7.47;;;6.78;;
32788;SDS011;19141;48.980;8.410;2023-08-24T17:33:38;8.60;;;6.80;;
32788;SDS011;19141;48.980;8.410;2023-08-24T17:36:03;9.80;;;6.82;;
32788;SDS011;19141;48.980;8.410;2023-08-24T17:38:29;8.25;;;6.38;;
32788;SDS011;19141;48.980;8.410;2023-08-24T17:41:01;7.45;;;6.50;;
32788;SDS011;19141;48.980;8.410;2023-08-24T17:43:27;8.98;;;7.07;;
32788;SDS011;19141;48.980;8.410;2023-08-24T17:45:53;8.25;;;6.72;;
32788;SDS011;19141;48.980;8.410;2023-08-24T17:48:19;8.20;;;7.35;;
32788;SDS011;19141;48.980;8.410;2023-08-24T17:50:51;8.18;;;6.38;;
32788;SDS011;19141;48.980;8.410;2023-08-24T17:53:21;9.18;;;7.32;;
32788;SDS011;19141;48.980;8.410;2023-08-24T17:55:51;9.63;;;6.90;;
32788;SDS011;19141;48.980;8.410;2023-08-24T17:58:18;12.25;;;6.68;;
32788;SDS011;19141;48.980;8.410;2023-08-24T18:00:43;7.65;;;6.50;;
32788;SDS011;19141;48.980;8.410;2023-08-24T18:03:09;10.35;;;6.70;;
32788;SDS011;19141;48.980;8.410;2023-08-24T18:05:34;7.30;;;6.55;;
32788;SDS011;19141;48.980;8.410;2023-08-24T18:07:59;11.05;;;6.43;;
32788;SDS011;19141;48.980;8.410;2023-08-24T18:10:26;9.38;;;7.03;;
32788;SDS011;19141;48.980;8.410;2023-08-24T18:15:18;8.50;;;7.30;;
32788;SDS011;19141;48.980;8.410;2023-08-24T18:17:43;11.18;;;7.90;;
32788;SDS011;19141;48.980;8.410;2023-08-24T18:20:09;8.95;;;7.40;;
32788;SDS011;19141;48.980;8.410;2023-08-24T18:22:34;10.65;;;8.35;;
32788;SDS011;19141;48.980;8.410;2023-08-24T18:25:00;12.00;;;9.27;;
32788;SDS011;19141;48.980;8.410;2023-08-24T18:27:25;9.77;;;8.48;;
32788;SDS011;19141;48.980;8.410;2023-08-24T18:29:52;11.60;;;9.75;;
32788;SDS011;19141;48.980;8.410;2023-08-24T18:32:18;12.43;;;10.35;;
32788;SDS011;19141;48.980;8.410;2023-08-24T18:34:44;14.90;;;11.50;;
32788;SDS011;19141;48.980;8.410;2023-08-24T18:37:09;13.50;;;11.05;;
32788;SDS011;19141;48.980;8.410;2023-08-24T18:39:36;16.10;;;10.73;;
32788;SDS011;19141;48.980;8.410;2023-08-24T18:42:03;17.35;;;10.77;;
32788;SDS011;19141;48.980;8.410;2023-08-24T18:44:29;18.33;;;12.10;;
32788;SDS011;19141;48.980;8.410;2023-08-24T18:46:55;15.50;;;11.63;;
32788;SDS011;19141;48.980;8.410;2023-08-24T18:49:20;15.75;;;11.90;;
32788;SDS011;19141;48.980;8.410;2023-08-24T18:51:46;19.23;;;13.20;;
32788;SDS011;19141;48.980;8.410;2023-08-24T18:54:12;20.63;;;16.00;;
32788;SDS011;19141;48.980;8.410;2023-08-24T18:56:38;19.17;;;13.18;;
32788;SDS011;19141;48.980;8.410;2023-08-24T18:59:03;19.48;;;13.18;;
32788;SDS011;19141;48.980;8.410;2023-08-24T19:01:29;18.40;;;12.90;;
32788;SDS011;19141;48.980;8.410;2023-08-24T19:03:58;17.77;;;13.23;;
32788;SDS011;19141;48.980;8.410;2023-08-24T19:06:24;19.52;;;13.98;;
32788;SDS011;19141;48.980;8.410;2023-08-24T19:08:51;18.13;;;13.35;;
32788;SDS011;19141;48.980;8.410;2023-08-24T19:11:17;16.80;;;12.63;;
32788;SDS011;19141;48.980;8.410;2023-08-24T19:13:43;16.33;;;13.30;;
32788;SDS011;19141;48.980;8.410;2023-08-24T19:16:09;15.33;;;11.93;;
32788;SDS011;19141;48.980;8.410;2023-08-24T19:18:34;21.75;;;13.55;;
32788;SDS011;19141;48.980;8.410;2023-08-24T19:21:00;14.82;;;11.68;;
32788;SDS011;19141;48.980;8.410;2023-08-24T19:23:25;16.15;;;11.23;;